Aérodrome :
LOGIN :

S'inscrire | Disclaimer

   EN    FR    IT 

 










Légende :    VFR   VFR Marginal   IFR   IFR Intensif   IFR Très Intensif
Visi : 
Plafond : 
>= 8 km
>= 3000ft
5 à 8 km
1000 à 3000 ft
1500m à 5 km
500 à 1000 ft
800 à 1500m
200 à 500 ft
< 800m
< 200 ft
Symboles :   Orages  Brouillard  Fortes neiges  Fortes précipitations  Vent > 20 kt
SIGMETs :   Divers  Orages  Givrage  Turbulence  Onde Orograph.  Cendres Volcan.






- Altitude de l'aérodrome : 1161 ft
- Code IATA : RJL


LELO - Logroño-Agoncillo

DERNIER METAR :
  • 160230Z AUTO 26009KT 230V300 9999 OVC035 05/01 Q1028

METARs EXPIRÉS :
  • 160200Z AUTO 24011KT 9999 BKN037 06/01 Q1028
  • 160130Z AUTO 23006KT 190V280 CAVOK 06/01 Q1028
  • 160100Z AUTO 28010KT 250V330 CAVOK 06/02 Q1028
  • 160030Z AUTO 28013KT 260V320 CAVOK 07/01 Q1029
  • 160000Z AUTO 28014KT CAVOK 06/02 Q1029

TAF TAF LELO
Valide du 15 à 21h jusqu'au 16 à 21h UTC


152000Z 1521/1621 28010KT 9999 SCT020 BKN035 TX11/1615Z TN04/1607Z
PROB30
TEMPO 1523/1608 4500 BR NSC



MET'MAP, la Météo Aéronautique d'un coup d'oeil ! - Copyright ORBIFLY Décembre 2007 - Disclaimer

ORBIFLY MET'MAP TEAM :

Programmation & Développement : Alexandra Zaïnal
Sur une idée originale de : Baudouin d'Aumeries
Assistance à la programmation : Marc-Olivier Méhu
Soutien technique & logistique : Manuel Goepfert

Contact : metmap@orbifly.com




SOURCES & CREDITS :

   NOAA